Nearby METAR Reports

 

LGTS - Thessaloniki/Mik, Greece
Distance from station: ΔΝΔ 66km
Ενημερώθηκε: 26/02/2018 04:50
Ασθενής βροχή, Σχεδόν νεφελώδης
Ασθενής βροχή, Σχεδόν νεφελώδης
 Ανεμος από ΔΒΔ
Ανεμος: ΔΒΔ 15 km/h
Θερμοκρασία: 5°C
Wind Chill: 2°C
Σημείο Δρόσου: 2°C
Υγρασία: 81%
Βαρόμετρο: 1004 hPa
Περίληψη: Ασθενής βροχή
Clouds: Σχεδόν νεφελώδης
Visibility: 8 km
Cloud details: Μερικώς νεφελώδης 152 m
Σχεδόν νεφελώδης 610 m
2018/02/26 02:50 LGTS 260250Z 29008KT 8000 -RA SCT005 BKN020 05/02 Q1004 RERA NOSIG
LGKV - Kavala/Chrisoupo, Greece
Distance from station: ΑΒΑ 80km
Ενημερώθηκε: 26/02/2018 05:20
Συννεφιά
Συννεφιά
 Ανεμος από ΒΑ
Ανεμος: ΒΑ 33 km/h
Θερμοκρασία: 3°C
Wind Chill: -3°C
Σημείο Δρόσου: -2°C
Υγρασία: 70%
Βαρόμετρο: 1006 hPa
Clouds: Συννεφιά
Visibility: 10 km
Cloud details: Few Clouds 457 m
Σχεδόν νεφελώδης 762 m
Συννεφιά 2134 m
2018/02/26 03:20 LGKV 260320Z 05018KT 9999 FEW015 BKN025 OVC070 03/M02 Q1006
LGLM - Limnos Island Ar, Greece
Distance from station: ΑΝΑ 157km
Ενημερώθηκε: 26/02/2018 05:20
Σχεδόν νεφελώδης
Σχεδόν νεφελώδης
 Ανεμος από ΑΒΑ
Ανεμος: ΑΒΑ 31 km/h, Ριπή: 52 km/h
Θερμοκρασία: 7°C
Wind Chill: 3°C
Σημείο Δρόσου: 4°C
Υγρασία: 81%
Βαρόμετρο: 1004 hPa
Clouds: Σχεδόν νεφελώδης
Visibility: 10 km
Cloud details: Few Clouds 305 m
Σχεδόν νεφελώδης 610 m
2018/02/26 03:20 LGLM 260320Z 06017G28KT 9999 FEW010 BKN020 07/04 Q1004
 
LGKZ - Kozani (civ/Army, Greece
Distance from station: ΔΝΔ 165km
Ενημερώθηκε: 25/02/2018 13:50
NOT Current
Heavy drizzle, Mist, Συννεφιά
Heavy drizzle, Mist, Συννεφιά
 Ανεμος από ΒΔ
Ανεμος: ΒΔ 13 km/h
Θερμοκρασία: 1°C
Wind Chill: -3°C
Σημείο Δρόσου: 0°C
Υγρασία: 93%
Βαρόμετρο: 1008 hPa
Περίληψη: Heavy drizzle, Mist
Clouds: Συννεφιά
Visibility: 3 km
Cloud details: Μερικώς νεφελώδης 183 m
Σχεδόν νεφελώδης 549 m
Συννεφιά 2134 m
2018/02/25 11:50 LGKZ 251150Z 32007KT 3000 +DZ BR SCT006 BKN018 OVC070 01/00 Q1008
LGSK - Skiathos Island, Greece
Distance from station: Ν 171km
Ενημερώθηκε: 25/02/2018 18:50
NOT Current
Ασθενής βροχή, Συννεφιά
Ασθενής βροχή, Συννεφιά
 Ανεμος από ΒΑ
Ανεμος: ΒΑ 9 km/h
Θερμοκρασία: 10°C
Wind Chill: 9°C
Σημείο Δρόσου: 5°C
Υγρασία: 71%
Βαρόμετρο: 1008 hPa
Περίληψη: Ασθενής βροχή
Clouds: Συννεφιά
Visibility: 10 km
Cloud details: Μερικώς νεφελώδης 244 m
Συννεφιά 762 m
2018/02/25 16:50 LGSK 251650Z 04005KT 9999 -RA SCT008 OVC025 10/05 Q1008
LBPD - Plovdiv, Bulgaria
Distance from station: ΒΒΑ 182km
Ενημερώθηκε: 26/02/2018 05:00
Light snow, Συννεφιά
Light snow, Συννεφιά
 Ανεμος από ΑΝΑ
Ανεμος: ΑΝΑ 26 km/h
Θερμοκρασία: -3°C
Wind Chill: -9°C
Σημείο Δρόσου: -4°C
Υγρασία: 93%
Βαρόμετρο: 1012 hPa
Περίληψη: Light Snow
Clouds: Συννεφιά
Visibility: 3 km
Cloud details: Few Clouds 213 m
Μερικώς νεφελώδης 701 m
Συννεφιά 884 m
2018/02/26 03:00 LBPD 260300Z AUTO 11014KT 2800 -SN FEW007/// SCT023/// OVC029/// M03/M04 Q1012 R99/490293
 
LGBL - Nea Anchialos, Greece
Distance from station: ΝΝΔ 184km
Ενημερώθηκε: 26/02/2018 05:20
Ασθενής βροχή, Συννεφιά
Ασθενής βροχή, Συννεφιά
 Ανεμος από ΑΝΑ
Ανεμος: ΑΝΑ 22 km/h
Θερμοκρασία: 9°C
Wind Chill: 6°C
Σημείο Δρόσου: 9°C
Υγρασία: 100%
Βαρόμετρο: 999 hPa
Περίληψη: Ασθενής βροχή
Clouds: Συννεφιά
Visibility: 7 km
Cloud details: Μερικώς νεφελώδης 244 m
Σχεδόν νεφελώδης 762 m
Συννεφιά 2438 m
2018/02/26 03:20 LGBL 260320Z 11012KT 7000 -RA SCT008 BKN025 OVC080 09/09 Q0999
LGAL - Alexandroupolis, Greece
Distance from station: Α 190km
Ενημερώθηκε: 26/02/2018 05:20
Σχεδόν νεφελώδης
Σχεδόν νεφελώδης
 Ανεμος από ΒΑ
Ανεμος: ΒΑ 35 km/h
Θερμοκρασία: 3°C
Wind Chill: -3°C
Σημείο Δρόσου: -1°C
Υγρασία: 75%
Βαρόμετρο: 1008 hPa
Clouds: Σχεδόν νεφελώδης
Visibility: 10 km
Cloud details: Μερικώς νεφελώδης 366 m
Σχεδόν νεφελώδης 610 m
2018/02/26 03:20 LGAL 260320Z 04019KT 9999 SCT012 BKN020 03/M01 Q1008